Airfield :
LOGIN :

Register | Disclaimer

   EN    FR    IT 

 










Legend :    VFR   Marginal VFR   IFR   Intensive IFR   Very Intensive IFR
Visi :
Ceiling :
>= 8 km
>= 3000ft
5 to 8 km
1000 to 3000 ft
1500m to 5 km
500 to 1000 ft
800 to 1500m
200 to 500 ft
< 800m
< 200 ft
Symbols :   Thunderstorms  Fog  Heavy snow  Heavy precipitations  Wind > 20 kt
SIGMETs :     Misc.  Thunderstorms  Icing  Turbulence  Mountain Waves  Volcanic Ashes






- Airport Elevation : 218 ft
- IATA code : LBG


LFPB - Paris / Le Bourget

CURRENT METAR :
  • 262130Z AUTO 17011KT 9999 NCD 09/06 Q1014 TEMPO BKN012 BECMG 20015G25KT

EXPIRED METARs :
  • 262100Z AUTO 18009KT CAVOK 09/06 Q1015 TEMPO BKN012 BECMG 20015G25KT
  • 262030Z AUTO 18009KT CAVOK 08/06 Q1015 TEMPO BKN012 BECMG 20015G25KT
  • 262000Z AUTO 17011KT 9999 FEW049 OVC098 08/06 Q1015 TEMPO BKN012 BECMG 20015G25KT
  • 261930Z AUTO 16009KT CAVOK 08/06 Q1015 TEMPO BKN012 BECMG 20015G25KT
  • 261900Z AUTO 17010KT CAVOK 09/06 Q1015 TEMPO BKN012 BECMG 20015G25KT

TAF TAF LFPB
Valid from the 26 at 18:00 until the 27 at 18:00 UTC


261700Z 2618/2718 20010KT CAVOK
BECMG 2618/2620 BKN018
BECMG 2620/2623 20015G25KT
TEMPO 2620/2718 BKN012
TEMPO 2704/2707 4000 -RA BKN006
ATIS : +33 1 48 62 43 92



MET'MAP, your aeronautical weather chart ! - Copyright ORBIFLY December 2007 - Disclaimer

ORBIFLY MET'MAP TEAM :

Programming & Development : Alexandra Zaïnal
Concept & original design : Baudouin d'Aumeries
Assistance for programming : Marc-Olivier Méhu
Technical & hardware support : Manuel Goepfert

Contact : metmap@orbifly.com




SOURCES & CREDITS :

   NOAA